Bafoussam, Cameroon
Current Conditions -  °F | °C
As of 11:00 AM on Thursday 29 Jan 2015 (Local Time) from FKKD Reporting Station
Thunderstorm Thunderstorm  
Wind Chill: 88°   Ceiling: Unl
Heat Index: 100°   Visibility: 5mi
Dew Point: 77°   Wind: 5mph
Humidity: 70%   Direction: 320°NW
Pressure: 29.88"   Gusts: NA
Location:  5.49°N, 10.41°E
Report Text: FKKD 291000Z 32004KT 8000 TS SCT016 FEW020CB 31/25 Q1012 NOSIG
Loading
Personal Weather Stations






























Interactive Weather Map New forecast layout! Learn more

10-Day Weather Forecast

Advertisements
Track Severe Weather on mobile